Jonathan Harvey

Scout - Bristol City
22 Oct 2028
Sunday
Process

Personality

Adaptability (7) Ambition (8) Controversy (18) Loyalty (2) Pressure (14) Professionalism (6) Sportsmanship (4) Temperament (4)

Profile

Coaching Style Democratic
License Continental A
Determination 5
Man Management 4
Motivating 8
Discipline 9
Job Satisfaction
100%
Fatigue
0%
Role Scout
Wage 33.0K p/w
Contract 14.03.2030

Performance

Behaviour Good
Training Effectiveness
48%
Player Development
45%
Injury Prevention
35%
Tactical Implementation
65%

Recent Events

Attended a recruitment meeting 7d ago
Recommended a transfer target 7d ago
Attended a recruitment meeting 14d ago
Recommended a transfer target 14d ago
Attended a recruitment meeting 21d ago
Recommended a transfer target 21d ago
Attended a recruitment meeting 28d ago
Recommended a transfer target 28d ago

Currently Monitoring

107
Player Club Status Ability Confidence Watched Last Observed Latest Vote
Ben Broggio Mansfield Town Active 116 / 126 40% 2 10.07.2028 -
Amin Nabizada Exeter City Active 112 / 110 40% 1 10.07.2028 -
Amine Boukamir Charleroi Active 100 / 115 40% 6 19.06.2028 -
Honest Ahanor Atalanta Active 139 / 137 40% 6 19.06.2028 -
Nicolò Moranduzzo Renate Active 94 / 98 40% 3 19.06.2028 -
Carl Piergianni Stevenage Report Ready 103 / 112 65% 1 19.06.2028 -
Celías Ingenthron Platense Active 112 / 114 40% 1 04.06.2028 -
Jan Bürger Northampton Town Active 129 / 135 40% 11 01.06.2028 -
Federico Matarán Giana Erminio Lost 100 / 111 40% 1 01.06.2028 -
Christos Mouzakitis Hull City Active 139 / 145 40% 6 28.05.2028 -
Josh Nichols Oldham Athletic Active 120 / 134 40% 6 28.05.2028 -
Tobiáš Pališčák Zlin Active 94 / 122 40% 3 24.05.2028 -
Jorthy Mokio ADO Den Haag Active 130 / 132 40% 3 23.05.2028 -
Tyler Fletcher Rotherham United Active 107 / 127 40% 2 22.05.2028 -
Ronan Kpakio AC Milan Active 128 / 126 40% 5 21.05.2028 -
Trey Nyoni Rotherham United Active 135 / 151 40% 4 20.05.2028 -
Andrey Ivlev Nizhniy Novgorod Active 122 / 110 40% 1 20.05.2028 -
Daniel Banjaqui Benfica Active 122 / 121 40% 3 19.05.2028 -
Olivier Leroux Mouscron Active 101 / 113 40% 3 16.05.2028 -
Kiani Inge Groningen Active 107 / 120 40% 5 09.05.2028 -
Ayden Heaven Portsmouth Active 142 / 147 40% 4 09.05.2028 -
Martim Cunha Porto Active 100 / 116 40% 4 07.05.2028 -
Andrea Cogoni Cosenza Active 109 / 119 40% 2 04.05.2028 -
Giovanni Leoni Lincoln City Active 141 / 155 40% 3 02.05.2028 -
Riquelme Thompson-Jones Accrington Stanley Active 109 / 115 40% 3 01.05.2028 -
Musa Danjuma Umraniyespor Active 109 / 104 40% 1 30.04.2028 -
Bernardo Lima Porto Active 105 / 113 40% 3 27.04.2028 -
Tobías Ramírez River Plate Active 118 / 141 40% 1 23.04.2028 -
Josh Acheampong Everton Active 134 / 157 40% 4 18.04.2028 -
Gideon Manaseh Ikorodu City Active 100 / 99 40% 1 18.04.2028 -
Miguel Figueiredo Benfica Active 119 / 131 40% 4 14.04.2028 -
Augusto Bando Ascoli Active 117 / 112 40% 1 14.04.2028 -
Nicolas Sport Recife Active 95 / 108 40% 1 12.04.2028 -
Andrea Bertoncini Triestina Active 94 / 100 40% 1 12.04.2028 -
Makar Vysochenko Spartak Moscow Active 83 / 85 40% 2 11.04.2028 -
Olivier Mambwa Young Boys Active 106 / 129 40% 1 06.04.2028 -
Victor Hernandez Santa Fe Active 107 / 118 40% 3 21.03.2028 -
Caleb Yirenkyi Coventry City Active 140 / 138 40% 4 26.12.2027 -
Luighi Palmeiras Active 118 / 126 40% 2 26.12.2027 -
Francisco Triver River Plate Active 98 / 83 40% 2 22.12.2027 -
Jayden Danns Bradford City Active 145 / 133 40% 1 22.12.2027 -
Gonçalo Moreira Benfica Active 117 / 126 40% 1 20.12.2027 -
Dylan Cabral Arsenal Active 108 / 117 40% 1 20.12.2027 -
Sindre Walle Egeli Udinese Active 141 / 133 40% 2 16.12.2027 -
Francisco Marchant Colo-Colo Active 101 / 101 40% 1 16.12.2027 -
Igor Tyjon Barrow AFC Active 121 / 127 40% 1 15.12.2027 -
Musa Malik Ikorodu City Active 95 / 99 40% 2 14.12.2027 -
Olger Escobar CF Montreal Active 102 / 120 40% 3 09.12.2027 -
Giovanni Baroni Talleres Active 115 / 113 40% 1 09.12.2027 -
Jonny Shore New York City Active 108 / 91 40% 2 04.12.2027 -
Ruben Ramos LA Galaxy Active 97 / 114 40% 1 30.11.2027 -
Babis Kostoulas Oxford United Active 145 / 146 40% 2 27.11.2027 -
Dániel Pintér Inter Miami CF Active 101 / 105 40% 1 27.11.2027 -
Andy Rojas New York Red Bulls Active 109 / 115 40% 1 22.11.2027 -
Gonçalo Oliveira Benfica Active 119 / 112 40% 3 31.05.2027 -
Godwin Oham Warri Wolves Active 96 / 88 40% 2 31.05.2027 -
Charlie Gray Fleetwood Town Active 91 / 85 40% 2 25.05.2027 -
Hosea Michael Remo Stars Active 88 / 102 40% 1 25.05.2027 -
Riley Owen Stevenage Active 107 / 117 40% 3 24.05.2027 -
Mustapha Jawad Kano Pillars Active 86 / 95 40% 2 24.05.2027 -
Tiago Freitas Benfica Active 102 / 114 40% 4 22.05.2027 -
Kazunari Kita Real Sociedad Active 95 / 107 40% 4 20.05.2027 -
Tommaso Cecotti Carpi Active 96 / 101 40% 3 20.05.2027 -
Daniel Dennis Ikorodu City Active 84 / 101 40% 2 12.05.2027 -
Lucas Bergvall Tottenham Active 153 / 142 40% 3 04.05.2027 -
Ezra Mayers West Ham United Active 121 / 117 40% 2 04.05.2027 -
Kamaldeen Atiemo Wa All Stars Active 94 / 98 40% 4 03.05.2027 -
Jenson Jones Walsall Active 96 / 105 40% 2 03.05.2027 -
Sascha Britschgi AC Milan Active 124 / 120 40% 3 27.04.2027 -
Zane Albarus Shrewsbury Town Active 100 / 106 40% 3 24.04.2027 -
Issa Yusuf Shooting Stars Active 87 / 81 40% 1 24.04.2027 -
Ahmed Akinyele Remo Stars Active 100 / 95 40% 1 21.04.2027 -
Konta Ismaily Active 85 / 83 40% 1 12.04.2027 -
David Ozoh Derby County Active 130 / 136 40% 2 01.04.2027 -
James Dornelly Peterborough United Active 107 / 106 40% 1 22.03.2027 -
Leandro Martins Benfica Active 92 / 92 40% 1 12.03.2027 -
Afriyie Sulemana WAFA Active 93 / 95 40% 1 06.03.2027 -
Bradley de Jesus Nacional Active 93 / 91 40% 1 03.03.2027 -
Cemran Dansin Orlando Pirates Active 97 / 114 40% 1 11.01.2027 -
Nikita Krivtsov Krasnodar Active 124 / 141 40% 1 28.12.2026 -
Harry Clarke Preston Active 131 / 138 40% 1 28.12.2026 -
Dennis Cirkin Queens Park Rangers Active 124 / 128 40% 1 28.12.2026 -
Diogo Dalot Manchester United Active 148 / 155 40% 1 27.12.2026 -
Nathan Collins Brentford Active 152 / 135 40% 1 16.12.2026 -
Aaron Hickey Brentford Active 147 / 151 40% 1 16.12.2026 -
Brooke Norton-Cuffy Hull City Active 128 / 143 40% 1 16.12.2026 -
Max Johnston Derby County Active 131 / 123 40% 5 15.12.2026 -
Ousmane Diomande Nottingham Forest Active 145 / 153 40% 1 15.12.2026 -
Alex Scott Bournemouth Active 152 / 160 40% 2 14.12.2026 -
Shea Charles Southampton Active 136 / 129 40% 1 11.12.2026 -
André Wolverhampton Active 143 / 137 40% 1 10.12.2026 -
Manu Morlanes Mallorca Active 143 / 127 40% 1 10.12.2026 -
Jacques Ekomié Wrexham Active 133 / 132 40% 1 07.12.2026 -
Aidan Morris Middlesbrough Active 133 / 130 40% 2 18.11.2026 -
Welington Southampton Active 138 / 130 40% 1 18.11.2026 -
Kristoffer Lund Birmingham Active 120 / 136 40% 1 09.11.2026 -
Japhet Sery Larsen Philadelphia Union Active 114 / 118 40% 1 09.11.2026 -
Alessandro Buongiorno Cagliari Active 153 / 149 40% 1 08.11.2026 -
Jakub Moder Burnley Active 135 / 148 40% 2 06.11.2026 -
Nectar Triantis Minnesota United FC Active 137 / 142 40% 1 06.11.2026 -
Max Bird Birmingham Active 126 / 122 40% 1 02.11.2026 -
Lasse Berg Johnsen Sporting Kansas City Active 130 / 117 40% 1 06.10.2026 -
Juan Manuel Sanabria Real Salt Lake Active 127 / 138 40% 1 05.10.2026 -
Jacob Greaves Ipswich Town Active 129 / 124 40% 1 05.10.2026 -
Jamie Reid Stevenage Active 115 / 117 65% 1 03.08.2026 Approve
Heung-Min Son Los Angeles Football Club Active 158 / 151 40% 1 01.08.2026 -
Guilherme Houston Dynamo Active 129 / 141 40% 1 01.08.2026 -